Time;durP1;ratioP1;P1;durP2;ratioP2;P2;SDS_P1;SDS_P2;PMS_P1;PMS_P2;Temp;Humidity;BMP_temperature;BMP_pressure;BME280_temperature;BME280_humidity;BME280_pressure;Samples;Min_cycle;Max_cycle;Signal;HPM_P1;HPM_P2
2020/12/28 00:01:30;;;;;;;;;;;;;;;8.37;54.38;98206.13;4821481;29;20001;-80
2020/12/28 00:03:57;;;;;;;;;;;;;;;8.38;54.18;98199.94;4833060;29;19932;-79
2020/12/28 00:06:23;;;;;;;;;;;;;;;8.42;54.02;98203.25;4831888;29;19936;-80
2020/12/28 00:08:52;;;;;;;;;;;;;;;8.44;54.05;98194.31;4829267;29;19939;-80
2020/12/28 00:11:20;;;;;;;;;;;;;;;8.47;53.90;98186.25;4828630;29;20402;-80
2020/12/28 00:13:47;;;;;;;;;;;;;;;8.51;54.18;98193.94;4831314;29;19933;-80
2020/12/28 00:16:14;;;;;;;;;;;;;;;8.54;54.14;98199.06;4835406;29;19933;-81
2020/12/28 00:18:41;;;;;;;;;;;;;;;8.55;53.92;98196.31;4830706;29;20039;-80
2020/12/28 00:21:08;;;;;;;;;;;;;;;8.57;54.48;98197.06;4830015;29;19964;-80
2020/12/28 00:23:35;;;;;;;;;;;;;;;8.58;54.04;98195.28;4818152;29;19933;-80
2020/12/28 00:26:03;;;;;;;;;;;;;;;8.57;54.50;98193.59;4826828;29;19945;-79
2020/12/28 00:28:30;;;;;;;;;;;;;;;8.55;54.13;98204.22;4836182;29;20092;-79
2020/12/28 00:30:57;;;;;;;;;;;;;;;8.57;54.29;98198.88;4840458;29;19940;-78
2020/12/28 00:33:25;;;;;;;;;;;;;;;8.56;54.30;98205.06;4823253;29;19932;-79
2020/12/28 00:35:52;;;;;;;;;;;;;;;8.55;53.72;98200.72;4819888;29;19943;-79
2020/12/28 00:38:21;;;;;;;;;;;;;;;8.56;54.42;98195.38;4833307;29;19971;-81
2020/12/28 00:40:49;;;;;;;;;;;;;;;8.54;54.13;98197.25;4818851;29;19929;-79
2020/12/28 00:43:17;;;;;;;;;;;;;;;8.55;54.04;98198.97;4822700;29;20376;-79
2020/12/28 00:45:44;;;;;;;;;;;;;;;8.55;54.30;98182.28;4822835;29;19975;-79
2020/12/28 00:48:13;;;;;;;;;;;;;;;8.56;54.30;98189.25;4841125;29;20933;-80
2020/12/28 00:50:40;;;;;;;;;;;;;;;8.54;54.20;98185.88;4835259;29;19939;-80
2020/12/28 00:53:07;;;;;;;;;;;;;;;8.53;54.50;98186.81;4835155;29;19932;-80
2020/12/28 00:55:34;;;;;;;;;;;;;;;8.52;54.40;98188.59;4819004;29;20313;-80
2020/12/28 00:58:03;;;;;;;;;;;;;;;8.53;54.42;98181.53;4837523;29;19929;-81
2020/12/28 01:00:31;;;;;;;;;;;;;;;8.51;54.84;98180.78;4823193;29;20036;-79
2020/12/28 01:03:02;;;;;;;;;;;;;;;8.47;54.54;98180.13;4837580;29;20447;-79
2020/12/28 01:05:49;;;;;;;;;;;;;;;8.47;54.49;98177.50;4829431;29;19932;-80
2020/12/28 01:08:16;;;;;;;;;;;;;;;8.46;54.84;98175.78;4816422;29;19933;-80
2020/12/28 01:10:44;;;;;;;;;;;;;;;8.47;54.45;98186.25;4821401;29;19932;-78
2020/12/28 01:13:21;;;;;;;;;;;;;;;8.41;54.27;98178.66;4821020;29;20466;-79
2020/12/28 01:15:56;;;;;;;;;;;;;;;8.39;54.93;98175.28;4837376;29;20032;-79
2020/12/28 01:18:26;;;;;;;;;;;;;;;8.41;54.87;98180.47;4820346;29;19932;-79
2020/12/28 01:20:57;;;;;;;;;;;;;;;8.39;54.40;98182.31;4831260;29;19940;-78
2020/12/28 01:23:29;;;;;;;;;;;;;;;8.33;54.98;98182.72;4816376;29;20019;-79
2020/12/28 01:26:07;;;;;;;;;;;;;;;8.31;54.23;98182.78;4821430;29;20034;-79
2020/12/28 01:28:38;;;;;;;;;;;;;;;8.32;54.46;98179.22;4833688;29;20041;-80
2020/12/28 01:31:07;;;;;;;;;;;;;;;8.33;54.71;98186.19;4840107;29;19939;-80
2020/12/28 01:34:10;;;;;;;;;;;;;;;8.30;54.44;98175.84;4815151;29;19932;-80
2020/12/28 01:36:59;;;;;;;;;;;;;;;8.28;54.55;98175.06;4830901;29;19944;-79
2020/12/28 01:39:42;;;;;;;;;;;;;;;8.27;54.24;98170.72;4822834;29;20018;-79
2020/12/28 01:42:09;;;;;;;;;;;;;;;8.29;54.09;98177.59;4820768;29;20119;-80
2020/12/28 01:44:36;;;;;;;;;;;;;;;8.28;54.19;98180.31;4820140;29;19929;-80
2020/12/28 01:47:15;;;;;;;;;;;;;;;8.33;54.91;98177.44;4821168;29;19932;-80
2020/12/28 01:49:43;;;;;;;;;;;;;;;8.33;53.68;98180.06;4827688;29;19951;-80
2020/12/28 01:52:10;;;;;;;;;;;;;;;8.38;54.39;98185.88;4819053;29;19932;-80
2020/12/28 01:54:38;;;;;;;;;;;;;;;8.40;54.03;98190.13;4820784;29;19959;-80
2020/12/28 01:57:08;;;;;;;;;;;;;;;8.41;54.30;98181.28;4820731;29;19932;-79
2020/12/28 01:59:46;;;;;;;;;;;;;;;8.45;54.05;98180.19;4820252;29;19936;-79
2020/12/28 02:02:31;;;;;;;;;;;;;;;8.50;54.56;98179.06;4831948;29;19954;-82
2020/12/28 02:04:57;;;;;;;;;;;;;;;8.53;54.04;98178.91;4829347;29;19933;-80
2020/12/28 02:07:27;;;;;;;;;;;;;;;8.56;54.45;98176.06;4817603;29;19937;-79
2020/12/28 02:10:00;;;;;;;;;;;;;;;8.59;54.24;98176.75;4830890;29;19933;-82
2020/12/28 02:12:27;;;;;;;;;;;;;;;8.62;54.00;98167.81;4830116;29;19943;-80
2020/12/28 02:14:55;;;;;;;;;;;;;;;8.66;54.19;98165.84;4819827;29;20023;-81
2020/12/28 02:18:00;;;;;;;;;;;;;;;8.70;54.36;98156.81;4812469;29;19939;-81
2020/12/28 02:20:44;;;;;;;;;;;;;;;8.70;53.84;98165.56;4809401;29;19933;-79
2020/12/28 02:23:13;;;;;;;;;;;;;;;8.73;53.84;98152.19;4817978;29;19943;-80
2020/12/28 02:25:39;;;;;;;;;;;;;;;8.71;53.70;98143.53;4818595;29;19936;-80
2020/12/28 02:28:06;;;;;;;;;;;;;;;8.72;54.09;98154.91;4813007;29;19936;-80
2020/12/28 02:30:35;;;;;;;;;;;;;;;8.73;54.28;98144.28;4816662;29;19929;-80
2020/12/28 02:33:28;;;;;;;;;;;;;;;8.73;53.78;98148.69;4796872;29;19933;-80
2020/12/28 02:36:09;;;;;;;;;;;;;;;8.72;54.12;98144.38;4818697;29;19940;-80
2020/12/28 02:38:37;;;;;;;;;;;;;;;8.73;54.32;98159.25;4814131;29;19976;-80
2020/12/28 02:41:06;;;;;;;;;;;;;;;8.71;53.72;98163.78;4818506;29;19939;-80
2020/12/28 02:43:53;;;;;;;;;;;;;;;8.69;54.23;98153.31;4811572;29;19972;-79
2020/12/28 02:46:38;;;;;;;;;;;;;;;8.70;54.49;98156.81;4812624;29;20299;-80
2020/12/28 02:49:23;;;;;;;;;;;;;;;8.71;54.25;98159.34;4809266;29;20419;-80
2020/12/28 02:52:09;;;;;;;;;;;;;;;8.69;54.16;98163.84;4816048;29;19944;-80
2020/12/28 02:55:00;;;;;;;;;;;;;;;8.67;54.09;98171.03;4821499;29;19967;-83
2020/12/28 02:57:46;;;;;;;;;;;;;;;8.65;54.19;98167.63;4818284;29;19985;-81
2020/12/28 03:00:31;;;;;;;;;;;;;;;8.64;54.53;98168.53;4812192;29;20020;-80
2020/12/28 03:03:20;;;;;;;;;;;;;;;8.64;54.32;98166.78;4818545;29;19939;-80
2020/12/28 03:06:06;;;;;;;;;;;;;;;8.62;54.23;98157.28;4817376;29;20393;-79
2020/12/28 03:08:52;;;;;;;;;;;;;;;8.61;54.67;98155.56;4817389;29;20478;-80
2020/12/28 03:11:40;;;;;;;;;;;;;;;8.61;53.95;98153.78;4816769;29;19940;-81
2020/12/28 03:14:26;;;;;;;;;;;;;;;8.59;54.28;98153.03;4810561;29;20028;-79
2020/12/28 03:17:11;;;;;;;;;;;;;;;8.58;54.93;98147.88;4818481;29;20381;-80
2020/12/28 03:19:57;;;;;;;;;;;;;;;8.56;54.08;98150.59;4815679;29;19961;-81
2020/12/28 03:22:51;;;;;;;;;;;;;;;8.56;54.51;98142.69;4817765;29;19933;-80
2020/12/28 03:25:37;;;;;;;;;;;;;;;8.57;54.76;98144.34;4813395;29;20503;-79
2020/12/28 03:28:23;;;;;;;;;;;;;;;8.54;54.19;98141.09;4810679;29;19943;-80
2020/12/28 03:31:08;;;;;;;;;;;;;;;8.53;54.51;98139.38;4813340;29;19939;-79
2020/12/28 03:33:54;;;;;;;;;;;;;;;8.51;54.40;98139.47;4814308;29;20077;-80
2020/12/28 03:36:39;;;;;;;;;;;;;;;8.50;54.62;98144.81;4815382;29;19940;-79
2020/12/28 03:39:24;;;;;;;;;;;;;;;8.51;54.48;98141.25;4812883;29;19939;-79
2020/12/28 03:42:11;;;;;;;;;;;;;;;8.50;54.69;98137.78;4809244;29;20394;-79
2020/12/28 03:44:58;;;;;;;;;;;;;;;8.48;54.36;98129.09;4816480;29;20045;-80
2020/12/28 03:47:45;;;;;;;;;;;;;;;8.47;54.42;98130.06;4815391;29;20402;-80
2020/12/28 03:50:30;;;;;;;;;;;;;;;8.48;54.77;98137.00;4815634;29;19943;-79
2020/12/28 03:53:28;;;;;;;;;;;;;;;8.45;54.84;98126.63;4782562;29;19933;-79
2020/12/28 03:56:17;;;;;;;;;;;;;;;8.45;55.14;98116.09;4814105;29;20492;-79
2020/12/28 03:59:19;;;;;;;;;;;;;;;8.46;55.02;98104.66;4795341;29;19934;-79
2020/12/28 04:02:05;;;;;;;;;;;;;;;8.44;54.64;98095.97;4816395;29;19939;-80
2020/12/28 04:04:51;;;;;;;;;;;;;;;8.42;54.79;98101.31;4813297;29;19944;-80
2020/12/28 04:07:38;;;;;;;;;;;;;;;8.44;55.01;98123.16;4818285;29;19981;-81
2020/12/28 04:10:28;;;;;;;;;;;;;;;8.41;54.85;98125.97;4812157;29;20058;-81
2020/12/28 04:13:07;;;;;;;;;;;;;;;8.40;55.31;98118.16;4813170;29;20028;-80
2020/12/28 04:15:34;;;;;;;;;;;;;;;8.36;54.88;98130.66;4812186;29;19933;-81
2020/12/28 04:18:02;;;;;;;;;;;;;;;8.36;55.55;98137.72;4818375;29;19928;-81
2020/12/28 04:20:29;;;;;;;;;;;;;;;8.37;55.01;98140.28;4816042;29;19941;-81
2020/12/28 04:22:57;;;;;;;;;;;;;;;8.36;55.29;98145.63;4813050;29;19933;-81
2020/12/28 04:25:24;;;;;;;;;;;;;;;8.35;54.74;98133.41;4812236;29;20679;-81
2020/12/28 04:27:51;;;;;;;;;;;;;;;8.34;54.97;98135.19;4816874;29;19933;-81
2020/12/28 04:30:19;;;;;;;;;;;;;;;8.35;55.05;98128.97;4815902;29;19939;-80
2020/12/28 04:32:49;;;;;;;;;;;;;;;8.38;54.90;98118.25;4812625;29;20039;-81
2020/12/28 04:35:17;;;;;;;;;;;;;;;8.36;55.04;98125.41;4815290;29;19962;-80
2020/12/28 04:37:44;;;;;;;;;;;;;;;8.41;54.71;98114.59;4809459;29;19945;-80
2020/12/28 04:40:11;;;;;;;;;;;;;;;8.43;54.96;98105.66;4814255;29;19940;-80
2020/12/28 04:42:41;;;;;;;;;;;;;;;8.47;55.24;98115.09;4817481;29;19933;-80
2020/12/28 04:45:09;;;;;;;;;;;;;;;8.54;54.79;98120.00;4812744;29;19933;-81
2020/12/28 04:47:38;;;;;;;;;;;;;;;8.58;54.69;98119.72;4815281;29;19939;-80
2020/12/28 04:50:10;;;;;;;;;;;;;;;8.60;54.79;98124.88;4814419;29;19972;-82
2020/12/28 04:52:38;;;;;;;;;;;;;;;8.62;54.54;98131.75;4811057;29;19933;-80
2020/12/28 04:55:04;;;;;;;;;;;;;;;8.66;54.46;98129.78;4816156;29;19939;-81
2020/12/28 04:57:31;;;;;;;;;;;;;;;8.69;54.39;98131.38;4812072;29;19929;-81
2020/12/28 05:00:00;;;;;;;;;;;;;;;8.70;54.28;98128.66;4812671;29;19937;-80
2020/12/28 05:02:27;;;;;;;;;;;;;;;8.71;54.89;98130.34;4816449;29;19932;-81
2020/12/28 05:05:04;;;;;;;;;;;;;;;8.73;54.72;98117.94;4813001;29;19959;-80
2020/12/28 05:07:32;;;;;;;;;;;;;;;8.74;54.38;98130.16;4806947;29;19933;-81
2020/12/28 05:10:00;;;;;;;;;;;;;;;8.76;54.57;98128.28;4816490;29;19929;-82
2020/12/28 05:12:30;;;;;;;;;;;;;;;8.76;54.38;98132.69;4816424;29;19939;-81
2020/12/28 05:15:04;;;;;;;;;;;;;;;8.74;54.99;98127.50;4818518;29;20399;-81
2020/12/28 05:17:31;;;;;;;;;;;;;;;8.76;54.58;98120.38;4820885;29;19932;-82
2020/12/28 05:20:01;;;;;;;;;;;;;;;8.77;54.85;98126.47;4814740;29;19929;-80
2020/12/28 05:22:29;;;;;;;;;;;;;;;8.76;55.13;98122.16;4819511;29;19939;-79
2020/12/28 05:25:01;;;;;;;;;;;;;;;8.74;54.81;98135.44;4818790;29;20776;-81
2020/12/28 05:27:31;;;;;;;;;;;;;;;8.74;54.93;98145.13;4814110;29;19956;-79
2020/12/28 05:29:58;;;;;;;;;;;;;;;8.74;54.75;98140.69;4820587;29;19932;-79
2020/12/28 05:32:24;;;;;;;;;;;;;;;8.74;54.93;98140.69;4815794;29;19996;-79
2020/12/28 05:34:53;;;;;;;;;;;;;;;8.74;54.47;98145.97;4815457;29;19940;-81
2020/12/28 05:37:24;;;;;;;;;;;;;;;8.70;54.69;98147.09;4815520;29;19932;-78
2020/12/28 05:39:52;;;;;;;;;;;;;;;8.70;54.52;98144.47;4818606;29;19929;-80
2020/12/28 05:42:19;;;;;;;;;;;;;;;8.69;54.95;98149.84;4822561;29;19933;-79
2020/12/28 05:44:47;;;;;;;;;;;;;;;8.70;55.10;98146.25;4817939;29;19933;-79
2020/12/28 05:47:17;;;;;;;;;;;;;;;8.69;54.95;98152.47;4811926;29;20110;-79
2020/12/28 05:49:45;;;;;;;;;;;;;;;8.67;55.45;98160.47;4816202;29;19932;-80
2020/12/28 05:52:13;;;;;;;;;;;;;;;8.66;55.42;98163.22;4816234;29;19932;-80
2020/12/28 05:54:41;;;;;;;;;;;;;;;8.64;54.75;98166.78;4817554;29;19976;-80
2020/12/28 05:57:08;;;;;;;;;;;;;;;8.62;54.93;98166.00;4816769;29;19972;-81
2020/12/28 05:59:36;;;;;;;;;;;;;;;8.61;55.38;98164.31;4816996;29;19941;-81
2020/12/28 06:02:04;;;;;;;;;;;;;;;8.59;55.37;98157.47;4810366;29;20302;-81
2020/12/28 06:04:59;;;;;;;;;;;;;;;8.57;55.65;98162.81;4817166;29;19928;-81
2020/12/28 06:07:26;;;;;;;;;;;;;;;8.56;55.43;98161.13;4807663;29;19936;-79
2020/12/28 06:10:04;;;;;;;;;;;;;;;8.56;54.88;98165.53;4816924;29;20062;-80
2020/12/28 06:12:31;;;;;;;;;;;;;;;8.57;55.40;98175.16;4815997;29;20028;-80
2020/12/28 06:14:59;;;;;;;;;;;;;;;8.59;55.22;98181.19;4811210;29;19933;-79
2020/12/28 06:17:36;;;;;;;;;;;;;;;8.56;54.84;98182.22;4814369;29;20016;-79
2020/12/28 06:20:03;;;;;;;;;;;;;;;8.56;55.07;98190.13;4819587;29;19974;-80
2020/12/28 06:22:32;;;;;;;;;;;;;;;8.56;55.29;98186.63;4816386;29;19944;-80
2020/12/28 06:25:03;;;;;;;;;;;;;;;8.57;55.54;98188.31;4817612;29;19929;-81
2020/12/28 06:27:31;;;;;;;;;;;;;;;8.56;55.67;98192.75;4817154;29;20030;-80
2020/12/28 06:30:08;;;;;;;;;;;;;;;8.56;55.40;98203.28;4812692;29;19937;-78
2020/12/28 06:32:43;;;;;;;;;;;;;;;8.55;55.73;98204.22;4812831;29;19965;-82
2020/12/28 06:35:11;;;;;;;;;;;;;;;8.55;55.64;98214.78;4822301;29;19943;-80
2020/12/28 06:37:40;;;;;;;;;;;;;;;8.51;55.44;98218.53;4822079;29;19933;-80
2020/12/28 06:40:07;;;;;;;;;;;;;;;8.53;55.38;98216.63;4821734;29;19939;-79
2020/12/28 06:42:34;;;;;;;;;;;;;;;8.53;55.61;98219.28;4816552;29;19936;-81
2020/12/28 06:45:11;;;;;;;;;;;;;;;8.51;55.46;98204.50;4812332;29;19936;-82
2020/12/28 06:47:39;;;;;;;;;;;;;;;8.51;55.31;98209.75;4824023;29;20371;-80
2020/12/28 06:50:08;;;;;;;;;;;;;;;8.49;55.57;98219.56;4821162;29;19933;-83
2020/12/28 09:00:41;;;;;;;;;;;;;;;9.12;55.40;98240.31;4861329;23;19932;-79
2020/12/28 09:03:09;;;;;;;;;;;;;;;9.17;55.88;98247.13;4836677;29;19945;-81
2020/12/28 09:05:36;;;;;;;;;;;;;;;9.16;55.43;98242.78;4834258;29;20005;-79
2020/12/28 09:38:29;;;;;;;;;;;;;;;9.35;54.51;98201.13;5184289;23;20425;-78
2020/12/28 09:40:56;;;;;;;;;;;;;;;9.43;55.19;98200.66;4843006;29;19935;-79
2020/12/28 09:43:23;;;;;;;;;;;;;;;9.41;55.15;98195.44;4841380;29;19928;-79
2020/12/28 09:45:50;;;;;;;;;;;;;;;9.43;54.84;98200.66;4832744;29;19932;-80
2020/12/28 09:48:16;;;;;;;;;;;;;;;9.43;54.54;98198.84;4835799;29;20015;-80
2020/12/28 09:50:46;;;;;;;;;;;;;;;9.41;54.77;98203.38;4850980;29;20039;-81
2020/12/28 09:53:12;;;;;;;;;;;;;;;9.41;55.44;98216.56;4836028;29;19932;-81
2020/12/28 09:55:41;;;;;;;;;;;;;;;9.36;55.22;98207.25;4843014;29;19971;-81
2020/12/28 09:58:08;;;;;;;;;;;;;;;9.37;55.40;98204.50;4842685;29;19992;-80
2020/12/28 10:00:36;;;;;;;;;;;;;;;9.36;54.94;98208.09;4835570;29;19932;-81
2020/12/28 10:03:06;;;;;;;;;;;;;;;9.33;55.39;98207.44;4841139;29;19933;-80
2020/12/28 10:05:33;;;;;;;;;;;;;;;9.35;55.34;98200.28;4841468;29;19928;-81
2020/12/28 10:07:59;;;;;;;;;;;;;;;9.38;55.22;98193.00;4847414;29;20766;-81
2020/12/28 10:10:29;;;;;;;;;;;;;;;9.46;54.92;98189.91;4849890;29;20474;-80
2020/12/28 10:12:56;;;;;;;;;;;;;;;9.54;54.56;98192.03;4832135;29;20433;-81
2020/12/28 10:15:24;;;;;;;;;;;;;;;9.59;54.18;98182.03;4828374;29;20375;-80
2020/12/28 10:18:12;;;;;;;;;;;;;;;9.62;53.93;98185.31;4844634;29;19936;-80
2020/12/28 10:20:43;;;;;;;;;;;;;;;9.67;54.23;98189.47;4841491;29;19999;-81
2020/12/28 10:23:10;;;;;;;;;;;;;;;9.65;53.87;98186.91;4847051;29;19938;-80
2020/12/28 10:25:37;;;;;;;;;;;;;;;9.63;54.36;98186.19;4834283;29;19939;-79
2020/12/28 10:28:05;;;;;;;;;;;;;;;9.64;54.22;98188.72;4840846;29;19928;-80
2020/12/28 10:30:34;;;;;;;;;;;;;;;9.62;54.07;98193.22;4841303;29;19969;-80
2020/12/28 10:33:01;;;;;;;;;;;;;;;9.65;54.40;98186.91;4841989;29;19979;-80
2020/12/28 10:35:28;;;;;;;;;;;;;;;9.64;54.67;98191.34;4845627;29;20387;-80
2020/12/28 14:09:55;;;;;;;;;;;;;;;8.62;57.76;98181.00;5706266;23;20051;-83
2020/12/28 14:23:47;;;;;;;;;;;;;;;8.57;57.94;98175.16;4812130;29;20016;-88
2020/12/28 15:07:12;;;;;;;;;;;;;;;8.85;59.33;98190.16;4809322;29;19936;-84
2020/12/28 15:09:50;;;;;;;;;;;;;;;8.86;59.05;98193.63;4804432;29;19965;-81
2020/12/28 15:12:45;;;;;;;;;;;;;;;8.84;59.06;98192.84;4810241;29;19937;-82
2020/12/28 15:15:24;;;;;;;;;;;;;;;8.82;59.17;98194.75;4793923;29;20051;-83
2020/12/28 15:18:00;;;;;;;;;;;;;;;8.83;58.62;98192.00;4808366;29;19933;-82
2020/12/28 15:21:13;;;;;;;;;;;;;;;8.85;59.38;98199.81;4807399;29;19936;-81
2020/12/28 15:23:41;;;;;;;;;;;;;;;8.84;58.66;98206.91;4805392;29;20560;-81
2020/12/28 15:26:10;;;;;;;;;;;;;;;8.84;59.06;98204.25;4807905;29;19936;-81
2020/12/28 15:28:49;;;;;;;;;;;;;;;8.84;58.98;98201.63;4795431;29;20494;-80
2020/12/28 15:31:28;;;;;;;;;;;;;;;8.84;59.22;98206.03;4793805;29;19933;-81
2020/12/28 15:34:04;;;;;;;;;;;;;;;8.83;59.39;98207.84;4808817;29;19971;-82
2020/12/28 15:36:46;;;;;;;;;;;;;;;8.83;58.72;98197.28;4803442;29;19937;-82
2020/12/28 15:39:15;;;;;;;;;;;;;;;8.80;58.67;98198.31;4789108;29;20533;-81
2020/12/28 15:41:42;;;;;;;;;;;;;;;8.81;59.18;98207.06;4804981;29;19932;-80
2020/12/28 15:44:19;;;;;;;;;;;;;;;8.80;58.58;98200.97;4805764;29;19937;-87
2020/12/28 15:46:55;;;;;;;;;;;;;;;9.14;61.23;98198.88;4809761;29;20442;-79
2020/12/28 15:49:22;;;;;;;;;;;;;;;9.18;63.89;98199.56;4801683;29;20372;-79
2020/12/28 16:15:48;;;;;;;;;;;;;;;8.72;60.75;98205.00;4705190;30;20946;-80
2020/12/28 17:46:57;;;;;;;;;;;;;;;8.19;59.47;98255.44;5138968;27;19965;-70
2020/12/28 17:49:24;;;;;;;;;;;;;;;8.20;59.60;98251.06;5142557;27;20117;-70
2020/12/28 17:51:51;;;;;;;;;;;;;;;8.21;59.50;98256.22;5138995;27;19927;-71
2020/12/28 17:54:18;;;;;;;;;;;;;;;8.22;59.38;98259.69;5140962;27;19938;-70
2020/12/28 17:56:45;;;;;;;;;;;;;;;8.25;59.12;98262.16;5138063;27;19963;-70
2020/12/28 17:59:12;;;;;;;;;;;;;;;8.28;59.22;98259.34;5137792;27;19928;-72
2020/12/28 18:01:39;;;;;;;;;;;;;;;8.28;58.82;98259.34;5142861;27;19934;-71
2020/12/28 18:04:07;;;;;;;;;;;;;;;8.33;59.30;98256.47;5140283;27;19951;-70
2020/12/28 18:06:34;;;;;;;;;;;;;;;8.37;59.05;98264.09;5143431;27;19927;-70
2020/12/28 18:09:01;;;;;;;;;;;;;;;8.37;59.19;98258.81;5139611;27;19928;-71
2020/12/28 18:11:28;;;;;;;;;;;;;;;8.42;58.61;98248.03;5134575;27;20011;-70
2020/12/28 18:13:55;;;;;;;;;;;;;;;8.43;58.94;98257.59;5137105;27;19927;-72
2020/12/28 18:16:22;;;;;;;;;;;;;;;8.46;59.15;98260.09;5139261;27;19938;-71
2020/12/28 18:18:51;;;;;;;;;;;;;;;8.50;58.70;98261.63;5142800;27;19927;-70
2020/12/28 18:21:19;;;;;;;;;;;;;;;8.50;58.71;98266.03;5134540;27;19973;-70
2020/12/28 18:23:46;;;;;;;;;;;;;;;8.50;58.46;98269.53;5137408;27;19931;-70
2020/12/28 18:26:14;;;;;;;;;;;;;;;8.51;58.47;98265.97;5129322;27;19924;-70
2020/12/28 18:28:41;;;;;;;;;;;;;;;8.52;58.36;98262.38;5141835;27;20290;-70
2020/12/28 18:31:10;;;;;;;;;;;;;;;8.52;59.11;98257.09;5144290;27;19938;-70
2020/12/28 18:33:38;;;;;;;;;;;;;;;8.52;58.81;98257.09;5140763;27;19969;-70
2020/12/28 18:36:05;;;;;;;;;;;;;;;8.57;58.15;98260.31;5137858;27;20019;-71
2020/12/28 18:38:33;;;;;;;;;;;;;;;8.78;61.39;98259.97;5135680;27;19939;-75
2020/12/28 18:41:01;;;;;;;;;;;;;;;8.73;61.26;98257.63;5133591;27;19991;-74
2020/12/28 18:43:28;;;;;;;;;;;;;;;8.70;61.28;98263.06;5135189;27;19923;-71
2020/12/28 18:45:55;;;;;;;;;;;;;;;8.69;61.56;98261.38;5137735;27;19934;-71
2020/12/28 18:48:22;;;;;;;;;;;;;;;8.69;61.46;98263.16;5125046;27;19932;-71
2020/12/28 18:50:50;;;;;;;;;;;;;;;8.67;60.85;98276.44;5126340;27;19984;-71
2020/12/28 18:53:16;;;;;;;;;;;;;;;8.68;61.00;98269.38;5119172;27;21007;-71
2020/12/28 18:55:46;;;;;;;;;;;;;;;8.66;60.90;98280.00;5124725;27;19928;-71
2020/12/28 18:58:14;;;;;;;;;;;;;;;8.64;60.01;98272.19;5124635;27;20631;-71
2020/12/28 19:00:41;;;;;;;;;;;;;;;8.63;60.14;98262.59;5123666;27;19931;-71
2020/12/28 19:03:10;;;;;;;;;;;;;;;8.66;60.16;98269.47;5126776;27;19969;-71
2020/12/28 19:05:37;;;;;;;;;;;;;;;8.65;60.36;98267.75;5120229;27;20558;-71
2020/12/28 19:08:05;;;;;;;;;;;;;;;8.63;60.44;98267.88;5116672;27;19932;-71
2020/12/28 19:10:31;;;;;;;;;;;;;;;8.61;60.11;98275.00;5118788;27;19931;-71
2020/12/28 19:12:59;;;;;;;;;;;;;;;8.61;60.11;98266.25;5123002;27;19932;-71
2020/12/28 19:15:28;;;;;;;;;;;;;;;8.62;59.91;98263.53;5131226;27;19932;-71
2020/12/28 19:17:56;;;;;;;;;;;;;;;8.60;59.76;98262.78;5126285;27;19935;-72
2020/12/28 19:20:24;;;;;;;;;;;;;;;8.60;59.42;98264.56;5125185;27;19934;-72
2020/12/28 19:22:50;;;;;;;;;;;;;;;8.61;60.14;98268.88;5132157;27;19932;-72
2020/12/28 19:25:19;;;;;;;;;;;;;;;8.59;59.86;98257.59;5139354;27;19927;-71
2020/12/28 19:27:46;;;;;;;;;;;;;;;8.57;59.92;98256.84;5136731;27;19928;-72
2020/12/28 19:30:14;;;;;;;;;;;;;;;8.56;59.82;98266.53;5131225;27;19931;-72
2020/12/28 19:32:42;;;;;;;;;;;;;;;8.55;59.90;98264.84;5137852;27;19988;-71
2020/12/28 19:35:09;;;;;;;;;;;;;;;8.54;60.22;98254.41;5129662;27;19934;-71
2020/12/28 19:37:36;;;;;;;;;;;;;;;8.54;59.92;98268.41;5136545;27;19931;-71
2020/12/28 19:40:07;;;;;;;;;;;;;;;8.52;59.79;98264.16;5134355;27;19931;-72
2020/12/28 19:42:34;;;;;;;;;;;;;;;8.52;59.70;98267.63;5146770;27;19934;-71
2020/12/28 19:45:05;;;;;;;;;;;;;;;8.51;59.59;98265.09;5127621;27;20451;-70
2020/12/28 19:47:33;;;;;;;;;;;;;;;8.50;59.71;98272.16;5128108;27;19932;-70
2020/12/28 19:50:02;;;;;;;;;;;;;;;8.50;59.94;98269.53;5130557;27;19927;-70
2020/12/28 19:52:30;;;;;;;;;;;;;;;8.49;59.49;98265.19;5128331;27;19955;-70
2020/12/28 19:54:57;;;;;;;;;;;;;;;8.49;59.28;98275.72;5133675;27;19928;-71
2020/12/28 19:57:24;;;;;;;;;;;;;;;8.47;60.07;98272.34;5126180;27;19927;-71
2020/12/28 19:59:51;;;;;;;;;;;;;;;8.46;59.35;98276.75;5130443;27;19932;-70
2020/12/28 20:02:18;;;;;;;;;;;;;;;8.45;59.11;98285.59;5124065;27;19928;-71
2020/12/28 20:04:45;;;;;;;;;;;;;;;8.45;59.77;98284.72;5118509;27;19927;-72
2020/12/28 20:07:12;;;;;;;;;;;;;;;8.44;59.19;98277.75;5127009;27;19931;-72
2020/12/28 20:09:39;;;;;;;;;;;;;;;8.44;59.62;98280.38;5128299;27;19949;-72
2020/12/28 20:12:06;;;;;;;;;;;;;;;8.43;59.45;98276.03;5126513;27;19974;-72
2020/12/28 20:14:33;;;;;;;;;;;;;;;8.43;59.81;98276.03;5125782;27;20000;-72
2020/12/28 20:16:59;;;;;;;;;;;;;;;8.42;59.56;98269.94;5126445;27;19927;-72
2020/12/28 20:19:27;;;;;;;;;;;;;;;8.42;59.48;98277.84;5129790;27;19953;-72
2020/12/28 20:21:58;;;;;;;;;;;;;;;8.42;58.98;98274.38;5131598;27;19950;-72
2020/12/28 20:24:25;;;;;;;;;;;;;;;8.43;59.28;98268.13;5129719;27;20006;-72
2020/12/28 20:26:57;;;;;;;;;;;;;;;8.43;59.77;98261.09;5122638;27;20432;-72
2020/12/28 20:29:24;;;;;;;;;;;;;;;8.46;59.37;98260.94;5125156;27;19935;-72
2020/12/28 20:31:50;;;;;;;;;;;;;;;8.49;58.96;98272.25;5119094;27;20319;-72
2020/12/28 20:34:17;;;;;;;;;;;;;;;8.51;59.46;98273.00;5130644;27;19943;-72
2020/12/28 20:36:44;;;;;;;;;;;;;;;8.54;59.07;98271.03;5127395;27;19923;-72
2020/12/28 20:39:12;;;;;;;;;;;;;;;8.58;59.00;98266.44;5124992;27;19935;-72
2020/12/28 20:41:39;;;;;;;;;;;;;;;8.60;59.30;98278.59;5126081;27;19958;-72
2020/12/28 20:44:06;;;;;;;;;;;;;;;8.65;58.76;98291.50;5123409;27;19925;-72
2020/12/28 20:46:33;;;;;;;;;;;;;;;8.70;59.05;98296.50;5126038;27;19927;-72
2020/12/28 20:49:00;;;;;;;;;;;;;;;8.72;58.57;98289.34;5128810;27;19927;-72
2020/12/28 20:51:27;;;;;;;;;;;;;;;8.74;58.69;98290.94;5130697;27;19981;-72
2020/12/28 20:53:54;;;;;;;;;;;;;;;8.80;58.37;98303.78;5126677;27;20562;-72
2020/12/28 20:56:22;;;;;;;;;;;;;;;8.83;58.72;98301.91;5122225;27;19931;-72
2020/12/28 20:58:49;;;;;;;;;;;;;;;8.82;58.58;98297.56;5159088;27;20391;-72
2020/12/28 21:01:18;;;;;;;;;;;;;;;8.83;58.72;98301.91;5119770;27;19991;-72
2020/12/28 21:03:45;;;;;;;;;;;;;;;8.84;58.95;98300.94;5124115;27;20432;-72
2020/12/28 21:06:12;;;;;;;;;;;;;;;8.87;58.58;98306.88;5127466;27;19931;-72
2020/12/28 21:08:39;;;;;;;;;;;;;;;8.86;58.61;98302.56;5129841;27;19932;-72
2020/12/28 21:11:06;;;;;;;;;;;;;;;8.87;58.25;98300.78;5126684;27;19973;-72
2020/12/28 21:13:34;;;;;;;;;;;;;;;8.89;58.82;98301.53;5119516;27;20624;-72
2020/12/28 21:16:01;;;;;;;;;;;;;;;8.89;58.88;98297.13;5123431;27;19927;-72
2020/12/28 21:18:28;;;;;;;;;;;;;;;8.89;58.62;98297.13;5126072;27;19924;-72
2020/12/28 21:20:55;;;;;;;;;;;;;;;8.89;58.93;98285.69;5119975;27;19934;-72
2020/12/28 21:23:22;;;;;;;;;;;;;;;8.91;59.10;98289.94;5126922;27;19935;-72
2020/12/28 21:25:49;;;;;;;;;;;;;;;8.90;58.88;98284.78;5124879;27;20293;-71
2020/12/28 21:28:16;;;;;;;;;;;;;;;8.89;58.79;98278.66;5121243;27;19929;-71
2020/12/28 21:30:44;;;;;;;;;;;;;;;8.88;59.02;98278.75;5131610;27;19963;-71
2020/12/28 21:33:11;;;;;;;;;;;;;;;8.86;58.64;98270.06;5133467;28;19931;-72
2020/12/28 21:35:38;;;;;;;;;;;;;;;8.86;59.30;98268.28;5133353;27;19923;-72
2020/12/28 21:38:05;;;;;;;;;;;;;;;8.87;58.47;98275.25;5136090;28;19941;-72
2020/12/28 21:40:42;;;;;;;;;;;;;;;8.87;58.36;98272.63;5131836;28;19923;-72
2020/12/28 21:43:09;;;;;;;;;;;;;;;8.86;58.86;98273.53;5134076;27;19980;-71
2020/12/28 21:45:37;;;;;;;;;;;;;;;8.87;59.06;98279.69;5125766;28;19931;-71
2020/12/28 21:48:04;;;;;;;;;;;;;;;8.87;58.90;98275.25;5129615;28;20451;-71
2020/12/28 21:50:31;;;;;;;;;;;;;;;8.88;59.01;98271.69;5125936;28;19935;-71
2020/12/28 21:52:58;;;;;;;;;;;;;;;8.86;58.45;98278.81;5127606;28;20028;-71
2020/12/28 21:55:25;;;;;;;;;;;;;;;8.85;59.07;98273.66;5125651;28;19927;-71
2020/12/28 21:57:52;;;;;;;;;;;;;;;8.86;59.11;98272.72;5126897;28;19958;-71
2020/12/28 22:00:18;;;;;;;;;;;;;;;8.85;58.62;98278.91;5131989;28;19924;-71
2020/12/28 22:02:45;;;;;;;;;;;;;;;8.86;58.73;98280.63;5132201;28;19931;-72
2020/12/28 22:05:13;;;;;;;;;;;;;;;8.85;58.68;98273.66;5132136;28;19923;-71
2020/12/28 22:07:41;;;;;;;;;;;;;;;8.83;58.95;98280.81;5132563;28;20417;-71
2020/12/28 22:10:09;;;;;;;;;;;;;;;8.84;58.60;98274.56;5126050;28;19929;-71
2020/12/28 22:12:40;;;;;;;;;;;;;;;8.83;58.76;98276.38;5143302;27;19951;-71
2020/12/28 22:15:08;;;;;;;;;;;;;;;8.83;59.01;98267.63;5125529;28;21010;-71